createdAt,value
2022-11-21T00:00:51.669Z,4.42
2022-11-21T00:03:18.372Z,3.31
2022-11-21T00:05:47.670Z,2.55
2022-11-21T00:08:19.628Z,1.99
2022-11-21T00:10:47.043Z,2.04
2022-11-21T00:13:17.857Z,3.95
2022-11-21T00:15:44.605Z,5.11
2022-11-21T00:18:12.282Z,4.07
2022-11-21T00:20:40.413Z,3.03
2022-11-21T00:23:07.512Z,2.30
2022-11-21T00:25:34.242Z,1.77
2022-11-21T00:28:00.623Z,1.81
2022-11-21T00:30:27.117Z,3.62
2022-11-21T00:32:53.448Z,4.87
2022-11-21T00:35:19.897Z,3.96
2022-11-21T00:37:48.044Z,2.89
2022-11-21T00:40:14.978Z,2.15
2022-11-21T00:42:41.725Z,1.66
2022-11-21T00:45:08.935Z,2.64
2022-11-21T00:47:35.425Z,4.66
2022-11-21T00:50:01.825Z,4.89
2022-11-21T00:52:28.220Z,3.68
2022-11-21T00:54:54.935Z,2.74
2022-11-21T00:57:21.345Z,2.06
2022-11-21T00:59:47.771Z,1.88
2022-11-21T01:02:14.216Z,3.60
2022-11-21T01:04:40.675Z,5.18
2022-11-21T01:07:07.087Z,4.26
2022-11-21T01:09:33.516Z,3.14
2022-11-21T01:11:59.939Z,2.37
2022-11-21T01:14:26.551Z,1.82
2022-11-21T01:16:53.138Z,2.36
2022-11-21T01:19:19.613Z,4.20
2022-11-21T01:21:46.051Z,4.88
2022-11-21T01:24:12.432Z,3.78
2022-11-21T01:26:38.948Z,2.80
2022-11-21T01:29:06.505Z,2.13
2022-11-21T01:31:33.033Z,2.09
2022-11-21T01:34:00.336Z,3.78
2022-11-21T01:36:32.863Z,5.06
2022-11-21T01:39:09.697Z,4.14
2022-11-21T01:41:41.559Z,3.06
2022-11-21T01:44:23.011Z,2.34
2022-11-21T01:46:51.338Z,2.39
2022-11-21T01:49:30.295Z,4.21
2022-11-21T01:52:03.078Z,5.16
2022-11-21T01:54:33.487Z,4.09
2022-11-21T01:57:29.470Z,3.12
2022-11-21T01:59:58.856Z,2.37
2022-11-21T02:02:30.792Z,2.42
2022-11-21T02:04:57.740Z,4.20
2022-11-21T02:07:25.272Z,4.98
2022-11-21T02:09:59.133Z,3.98
2022-11-21T02:12:35.004Z,3.04
2022-11-21T02:15:01.543Z,2.38
2022-11-21T02:17:32.250Z,2.83
2022-11-21T02:20:13.993Z,4.46
2022-11-21T02:23:25.315Z,5.28
2022-11-21T02:25:51.828Z,3.95
2022-11-21T02:28:22.802Z,3.09
2022-11-21T02:30:49.428Z,2.64
2022-11-21T02:33:16.026Z,3.77
2022-11-21T02:35:42.624Z,5.09
2022-11-21T02:38:36.493Z,4.74
2022-11-21T02:41:25.668Z,3.59
2022-11-21T02:43:56.509Z,2.82
2022-11-21T02:46:22.913Z,2.86
2022-11-21T02:48:49.280Z,4.84
2022-11-21T02:51:15.834Z,6.09
2022-11-21T02:53:42.345Z,5.11
2022-11-21T02:56:08.720Z,4.02
2022-11-21T02:58:35.465Z,3.30
2022-11-21T03:01:01.941Z,2.79
2022-11-21T03:03:28.504Z,3.11
2022-11-21T03:05:56.089Z,4.47
2022-11-21T03:08:22.691Z,5.76
2022-11-21T03:10:49.216Z,4.92
2022-11-21T03:13:15.656Z,3.91
2022-11-21T03:15:42.156Z,3.22
2022-11-21T03:18:08.551Z,3.13
2022-11-21T03:20:35.121Z,4.83
2022-11-21T03:23:01.734Z,5.65
2022-11-21T03:25:28.711Z,4.66
2022-11-21T03:27:55.333Z,3.74
2022-11-21T03:30:24.413Z,3.08
2022-11-21T03:32:51.061Z,3.20
2022-11-21T03:35:17.520Z,4.95
2022-11-21T03:37:44.160Z,5.61
2022-11-21T03:40:11.334Z,4.68
2022-11-21T03:42:37.740Z,3.75
2022-11-21T03:45:04.941Z,3.10
2022-11-21T03:47:31.590Z,3.14
2022-11-21T03:49:58.067Z,4.86
2022-11-21T03:52:24.628Z,6.11
2022-11-21T03:54:51.172Z,5.19
2022-11-21T03:57:17.582Z,4.13
2022-11-21T03:59:44.030Z,3.41
2022-11-21T04:02:10.389Z,3.07
2022-11-21T04:04:37.172Z,4.31
2022-11-21T04:07:03.738Z,5.99
2022-11-21T04:09:30.264Z,5.97
2022-11-21T04:11:56.622Z,4.81
2022-11-21T04:14:23.065Z,3.92
2022-11-21T04:16:49.473Z,3.30
2022-11-21T04:19:18.745Z,3.64
2022-11-21T04:21:45.120Z,5.36
2022-11-21T04:24:11.834Z,6.31
2022-11-21T04:26:38.257Z,5.31
2022-11-21T04:29:04.699Z,4.30
2022-11-21T04:31:31.233Z,3.58
2022-11-21T04:33:58.222Z,3.21
2022-11-21T04:36:24.753Z,4.36
2022-11-21T04:38:51.191Z,6.09
2022-11-21T04:41:17.627Z,5.75
2022-11-21T04:43:44.010Z,4.64
2022-11-21T04:46:10.463Z,3.81
2022-11-21T04:48:37.075Z,3.23
2022-11-21T04:51:03.546Z,3.62
2022-11-21T04:53:30.006Z,5.55
2022-11-21T04:55:56.492Z,6.02
2022-11-21T04:58:22.894Z,4.90
2022-11-21T05:00:49.419Z,3.95
2022-11-21T05:03:16.139Z,3.30
2022-11-21T05:05:42.654Z,2.88
2022-11-21T05:08:11.486Z,3.94
2022-11-21T05:11:07.187Z,5.89
2022-11-21T05:13:33.887Z,5.92
2022-11-21T05:16:00.512Z,4.70
2022-11-21T05:18:28.308Z,3.80
2022-11-21T05:20:58.122Z,3.18
2022-11-21T05:23:24.712Z,3.23
2022-11-21T05:25:51.364Z,5.05
2022-11-21T05:28:17.909Z,6.23
2022-11-21T05:31:03.933Z,5.28
2022-11-21T05:33:30.727Z,4.08
2022-11-21T05:35:57.332Z,3.37
2022-11-21T05:38:23.970Z,3.23
2022-11-21T05:40:53.597Z,4.92
2022-11-21T05:43:38.774Z,6.27
2022-11-21T05:46:05.283Z,5.28
2022-11-21T05:48:33.581Z,4.19
2022-11-21T05:51:00.199Z,3.46
2022-11-21T05:53:26.772Z,3.36
2022-11-21T05:55:53.607Z,5.00
2022-11-21T05:58:20.227Z,6.09
2022-11-21T06:00:46.764Z,5.16
2022-11-21T06:03:30.027Z,4.15
2022-11-21T06:06:13.289Z,3.37
2022-11-21T06:08:45.646Z,2.87
2022-11-21T06:11:14.784Z,3.81
2022-11-21T06:13:41.905Z,5.67
2022-11-21T06:16:10.482Z,6.43
2022-11-21T06:18:43.246Z,5.30
2022-11-21T06:21:17.920Z,4.22
2022-11-21T06:23:45.065Z,3.48
2022-11-21T06:26:15.885Z,3.27
2022-11-21T06:28:44.063Z,4.80
2022-11-21T06:31:16.943Z,6.06
2022-11-21T06:33:44.224Z,5.18
2022-11-21T06:36:15.736Z,4.14
2022-11-21T06:38:43.377Z,3.42
2022-11-21T06:41:18.070Z,3.43
2022-11-21T06:43:45.022Z,5.30
2022-11-21T06:46:12.590Z,6.33
2022-11-21T06:48:39.761Z,5.33
2022-11-21T06:51:12.144Z,4.32
2022-11-21T06:53:38.648Z,3.56
2022-11-21T06:56:05.309Z,3.50
2022-11-21T06:58:31.853Z,5.27
2022-11-21T07:01:06.613Z,6.04
2022-11-21T07:03:34.015Z,4.90
2022-11-21T07:06:01.323Z,3.97
2022-11-21T07:08:29.425Z,3.76
2022-11-21T07:11:23.637Z,5.02
2022-11-21T07:13:47.023Z,6.47
2022-11-21T07:16:13.788Z,6.70
2022-11-21T07:18:41.371Z,5.49
2022-11-21T07:21:08.708Z,4.43
2022-11-21T07:23:37.713Z,3.82
2022-11-21T07:26:07.130Z,4.97
2022-11-21T07:28:34.243Z,6.66
2022-11-21T07:31:11.704Z,6.23
2022-11-21T07:33:39.865Z,4.95
2022-11-21T07:36:06.825Z,4.08
2022-11-21T07:38:33.349Z,4.00
2022-11-21T07:41:00.453Z,5.69
2022-11-21T07:43:26.852Z,7.04
2022-11-21T07:45:53.729Z,6.21
2022-11-21T07:48:20.669Z,5.03
2022-11-21T07:50:47.100Z,4.33
2022-11-21T07:53:16.669Z,5.56
2022-11-21T07:55:43.290Z,7.34
2022-11-21T07:58:12.297Z,6.97
2022-11-21T08:00:43.960Z,5.65
2022-11-21T08:03:12.622Z,4.66
2022-11-21T08:05:41.692Z,4.09
2022-11-21T08:08:10.323Z,5.26
2022-11-21T08:10:39.154Z,7.04
2022-11-21T08:13:08.284Z,6.81
2022-11-21T08:15:38.053Z,5.51
2022-11-21T08:18:18.555Z,4.61
2022-11-21T08:20:45.284Z,5.23
2022-11-21T08:23:12.009Z,7.07
2022-11-21T08:25:42.228Z,7.18
2022-11-21T08:28:10.673Z,5.88
2022-11-21T08:30:38.122Z,4.93
2022-11-21T08:33:05.929Z,5.60
2022-11-21T08:35:35.256Z,6.99
2022-11-21T08:38:04.055Z,6.22
2022-11-21T08:40:34.956Z,5.11
2022-11-21T08:43:05.024Z,4.41
2022-11-21T08:45:33.035Z,5.54
2022-11-21T08:48:00.481Z,7.18
2022-11-21T08:50:31.494Z,6.62
2022-11-21T08:53:01.861Z,5.37
2022-11-21T08:55:29.798Z,4.54
2022-11-21T08:57:56.406Z,5.34
2022-11-21T09:00:23.326Z,6.76
2022-11-21T09:02:52.188Z,5.92
2022-11-21T09:05:24.894Z,4.90
2022-11-21T09:07:57.896Z,4.55
2022-11-21T09:10:28.474Z,6.15
2022-11-21T09:12:59.290Z,7.35
2022-11-21T09:15:44.270Z,6.36
2022-11-21T09:18:11.382Z,5.20
2022-11-21T09:20:41.270Z,4.51
2022-11-21T09:23:11.494Z,5.06
2022-11-21T09:25:38.585Z,6.89
2022-11-21T09:28:07.548Z,6.43
2022-11-21T09:30:34.574Z,5.35
2022-11-21T09:33:02.824Z,4.57
2022-11-21T09:35:29.466Z,4.95
2022-11-21T09:37:56.127Z,6.69
2022-11-21T09:40:23.223Z,6.27
2022-11-21T09:43:15.084Z,5.28
2022-11-21T09:45:49.351Z,4.70
2022-11-21T09:48:39.224Z,6.30
2022-11-21T09:51:11.908Z,6.80
2022-11-21T09:54:00.111Z,5.71
2022-11-21T09:56:30.113Z,4.79
2022-11-21T09:59:21.273Z,5.30
2022-11-21T10:01:47.914Z,7.26
2022-11-21T10:04:20.560Z,6.95
2022-11-21T10:07:11.227Z,5.84
2022-11-21T10:10:19.425Z,4.92
2022-11-21T10:13:27.329Z,4.34
2022-11-21T10:16:14.950Z,5.98
2022-11-21T10:19:38.221Z,7.38
2022-11-21T10:22:48.688Z,5.99
2022-11-21T10:25:26.888Z,4.97
2022-11-21T10:28:13.209Z,4.45
2022-11-21T10:30:43.881Z,5.72
2022-11-21T10:33:27.202Z,7.49
2022-11-21T10:36:06.888Z,6.96
2022-11-21T10:38:41.597Z,5.85
2022-11-21T10:41:20.103Z,5.12
2022-11-21T10:44:27.968Z,4.66
2022-11-21T10:46:59.883Z,6.26
2022-11-21T10:49:29.257Z,7.59
2022-11-21T10:52:17.194Z,6.76
2022-11-21T10:55:17.332Z,5.75
2022-11-21T10:57:45.902Z,5.03
2022-11-21T11:00:12.288Z,4.62
2022-11-21T11:03:05.590Z,4.83
2022-11-21T11:05:35.778Z,7.03
2022-11-21T11:08:13.656Z,8.03
2022-11-21T11:10:47.421Z,6.91
2022-11-21T11:13:49.911Z,5.87
2022-11-21T11:16:20.579Z,5.12
2022-11-21T11:19:01.283Z,4.67
2022-11-21T11:21:35.039Z,5.16
2022-11-21T11:24:13.002Z,7.26
2022-11-21T11:26:49.111Z,7.94
2022-11-21T11:29:29.860Z,6.78
2022-11-21T11:32:20.565Z,5.81
2022-11-21T11:35:02.359Z,5.11
2022-11-21T11:37:45.440Z,5.05
2022-11-21T11:40:37.775Z,6.95
2022-11-21T11:44:06.034Z,7.92
2022-11-21T11:47:02.813Z,6.48
2022-11-21T11:50:00.197Z,5.57
2022-11-21T11:52:49.806Z,4.98
2022-11-21T11:55:39.009Z,5.29
2022-11-21T11:58:21.251Z,7.53
2022-11-21T12:00:58.998Z,8.29
2022-11-21T12:04:02.859Z,7.10
2022-11-21T12:11:11.567Z,5.24
2022-11-21T12:13:39.582Z,5.77
2022-11-21T12:16:13.767Z,7.73
2022-11-21T12:19:02.348Z,8.22
2022-11-21T12:21:29.090Z,6.94
2022-11-21T12:24:01.993Z,6.08
2022-11-21T12:26:49.969Z,5.47
2022-11-21T12:29:36.878Z,5.58
2022-11-21T12:32:45.426Z,7.65
2022-11-21T12:35:24.226Z,7.95
2022-11-21T12:38:14.780Z,6.77
2022-11-21T12:40:59.540Z,5.85
2022-11-21T12:43:47.126Z,5.23
2022-11-21T12:46:20.920Z,5.08
2022-11-21T12:49:15.368Z,6.79
2022-11-21T12:52:15.245Z,8.41
2022-11-21T12:55:09.538Z,7.32
2022-11-21T12:57:54.641Z,6.19
2022-11-21T13:00:47.250Z,5.47
2022-11-21T13:03:54.980Z,5.66
2022-11-21T13:06:28.219Z,7.96
2022-11-21T13:08:56.782Z,8.64
2022-11-21T13:11:57.952Z,7.49
2022-11-21T13:14:34.680Z,6.35
2022-11-21T13:17:06.044Z,5.67
2022-11-21T13:20:16.416Z,5.84
2022-11-21T13:22:43.064Z,8.14
2022-11-21T13:25:10.737Z,8.25
2022-11-21T13:27:44.033Z,7.10
2022-11-21T13:30:10.891Z,6.17
2022-11-21T13:32:45.518Z,5.53
2022-11-21T13:35:18.529Z,5.58
2022-11-21T13:37:51.539Z,7.44
2022-11-21T13:40:29.871Z,8.43
2022-11-21T13:43:32.183Z,7.27
2022-11-21T13:45:58.182Z,6.11
2022-11-21T13:48:30.992Z,5.45
2022-11-21T13:51:39.177Z,5.44
2022-11-21T13:54:05.496Z,7.68
2022-11-21T13:57:07.282Z,8.68
2022-11-21T13:59:56.747Z,7.34
2022-11-21T14:02:44.191Z,6.21
2022-11-21T14:05:48.700Z,5.79
2022-11-21T14:08:23.541Z,7.79
2022-11-21T14:10:52.024Z,8.71
2022-11-21T14:13:27.482Z,7.59
2022-11-21T14:16:40.710Z,6.51
2022-11-21T14:19:16.638Z,5.86
2022-11-21T14:21:46.817Z,7.39
2022-11-21T14:24:18.055Z,8.53
2022-11-21T14:26:52.368Z,7.50
2022-11-21T14:29:40.227Z,6.43
2022-11-21T14:32:14.234Z,5.76
2022-11-21T14:34:40.781Z,7.05
2022-11-21T14:37:07.831Z,8.40
2022-11-21T14:39:43.698Z,7.58
2022-11-21T14:42:15.784Z,6.46
2022-11-21T14:44:43.027Z,5.68
2022-11-21T14:47:21.479Z,5.09
2022-11-21T14:49:54.170Z,5.53
2022-11-21T14:52:29.947Z,7.48
2022-11-21T14:57:48.445Z,6.71
2022-11-21T15:03:22.234Z,5.49
2022-11-21T15:06:07.319Z,7.29
2022-11-21T15:11:30.124Z,6.86
2022-11-21T15:14:18.017Z,5.89
2022-11-21T15:16:47.523Z,5.17
2022-11-21T15:19:27.343Z,5.83
2022-11-21T15:22:00.725Z,7.80
2022-11-21T15:24:42.075Z,7.67
2022-11-21T15:27:26.885Z,6.43
2022-11-21T15:30:20.556Z,5.51
2022-11-21T15:33:19.480Z,4.87
2022-11-21T15:38:47.214Z,8.14
2022-11-21T15:41:35.145Z,7.72
2022-11-21T15:44:01.620Z,6.35
2022-11-21T15:46:31.575Z,5.52
2022-11-21T15:49:30.863Z,5.08
2022-11-21T15:52:10.128Z,6.63
2022-11-21T15:54:37.442Z,8.44
2022-11-21T15:57:04.046Z,9.09
2022-11-21T15:57:14.112Z,6.17
2022-11-21T15:59:30.743Z,7.88
2022-11-21T16:01:57.618Z,6.72
2022-11-21T16:04:26.123Z,5.92
2022-11-21T16:06:57.148Z,5.32
2022-11-21T16:09:24.558Z,5.35
2022-11-21T16:11:51.073Z,7.15
2022-11-21T16:14:22.831Z,8.13
2022-11-21T16:16:49.391Z,7.07
2022-11-21T16:19:15.866Z,6.02
2022-11-21T16:21:42.584Z,5.32
2022-11-21T16:24:09.155Z,5.14
2022-11-21T16:26:36.231Z,6.73
2022-11-21T16:29:05.046Z,7.90
2022-11-21T16:31:31.948Z,6.95
2022-11-21T16:34:02.354Z,5.93
2022-11-21T16:36:30.608Z,5.21
2022-11-21T16:39:07.711Z,5.23
2022-11-21T16:41:40.413Z,7.21
2022-11-21T16:44:13.459Z,8.19
2022-11-21T16:46:50.917Z,7.05
2022-11-21T16:49:25.017Z,5.93
2022-11-21T16:51:58.477Z,5.20
2022-11-21T16:54:27.429Z,5.20
2022-11-21T16:56:53.873Z,6.98
2022-11-21T16:59:20.357Z,8.05
2022-11-21T17:01:53.593Z,7.06
2022-11-21T17:04:23.613Z,6.00
2022-11-21T17:06:50.155Z,5.27
2022-11-21T17:09:21.845Z,5.27
2022-11-21T17:11:48.476Z,7.11
2022-11-21T17:14:16.077Z,8.09
2022-11-21T17:16:48.742Z,7.05
2022-11-21T17:19:16.975Z,5.98
2022-11-21T17:21:43.736Z,5.26
2022-11-21T17:24:13.137Z,5.21
2022-11-21T17:26:44.193Z,6.99
2022-11-21T17:29:10.813Z,7.97
2022-11-21T17:31:47.029Z,6.88
2022-11-21T17:34:26.990Z,5.90
2022-11-21T17:36:56.489Z,5.15
2022-11-21T17:39:29.256Z,5.60
2022-11-21T17:41:59.010Z,7.62
2022-11-21T17:44:25.578Z,8.14
2022-11-21T17:46:53.315Z,6.96
2022-11-21T17:49:20.733Z,5.98
2022-11-21T17:51:47.441Z,5.30
2022-11-21T17:54:16.118Z,5.28
2022-11-21T17:56:47.393Z,7.17
2022-11-21T17:59:18.535Z,8.20
2022-11-21T18:01:46.551Z,7.10
2022-11-21T18:04:17.108Z,6.09
2022-11-21T18:06:43.828Z,5.36
2022-11-21T18:09:12.013Z,5.17
2022-11-21T18:11:41.072Z,6.90
2022-11-21T18:14:09.918Z,8.07
2022-11-21T18:16:42.733Z,7.07
2022-11-21T18:19:14.896Z,6.00
2022-11-21T18:21:41.768Z,5.29
2022-11-21T18:24:08.396Z,5.23
2022-11-21T18:26:37.277Z,7.01
2022-11-21T18:31:55.925Z,6.94
2022-11-21T18:34:24.742Z,5.96
2022-11-21T18:36:51.512Z,5.27
2022-11-21T18:39:20.206Z,5.23
2022-11-21T18:41:47.133Z,7.04
2022-11-21T18:44:20.053Z,8.16
2022-11-21T18:46:50.042Z,7.11
2022-11-21T18:49:19.677Z,6.05
2022-11-21T18:51:48.132Z,5.31
2022-11-21T18:54:17.807Z,4.75
2022-11-21T18:56:44.202Z,4.33
2022-11-21T18:59:10.713Z,4.52
2022-11-21T19:01:39.265Z,6.49
2022-11-21T19:04:08.753Z,7.64
2022-11-21T19:06:37.785Z,6.59
2022-11-21T19:09:04.306Z,5.56
2022-11-21T19:11:33.960Z,4.86
2022-11-21T19:14:06.942Z,4.36
2022-11-21T19:16:34.292Z,5.04
2022-11-21T19:19:33.644Z,7.04
2022-11-21T19:22:03.889Z,6.84
2022-11-21T19:24:30.565Z,5.69
2022-11-21T19:26:59.326Z,4.93
2022-11-21T19:29:25.939Z,4.40
2022-11-21T19:31:53.816Z,4.00
2022-11-21T19:34:22.606Z,4.48
2022-11-21T19:36:50.878Z,6.51
2022-11-21T19:39:17.739Z,7.35
2022-11-21T19:41:48.707Z,6.29
2022-11-21T19:44:18.108Z,5.34
2022-11-21T19:46:50.587Z,4.70
2022-11-21T19:49:20.555Z,4.22
2022-11-21T19:51:47.091Z,3.88
2022-11-21T19:54:16.383Z,4.91
2022-11-21T19:56:44.253Z,6.93
2022-11-21T19:59:12.836Z,7.33
2022-11-21T20:01:39.933Z,6.22
2022-11-21T20:04:07.212Z,5.30
2022-11-21T20:06:45.321Z,4.66
2022-11-21T20:09:15.306Z,4.90
2022-11-21T20:11:47.916Z,6.79
2022-11-21T20:14:21.349Z,7.76
2022-11-21T20:16:49.616Z,6.67
2022-11-21T20:19:19.064Z,5.68
2022-11-21T20:21:46.956Z,5.00
2022-11-21T20:24:15.385Z,4.96
2022-11-21T20:26:44.156Z,6.75
2022-11-21T20:29:14.989Z,7.82
2022-11-21T20:31:42.536Z,6.83
2022-11-21T20:34:13.021Z,5.83
2022-11-21T20:36:40.593Z,5.12
2022-11-21T20:39:13.852Z,4.62
2022-11-21T20:41:40.954Z,5.38
2022-11-21T20:47:07.924Z,6.66
2022-11-21T20:49:35.320Z,5.65
2022-11-21T20:54:48.536Z,4.36
2022-11-21T20:57:15.731Z,3.96
2022-11-21T20:59:42.742Z,3.63
2022-11-21T21:02:13.239Z,4.11
2022-11-21T21:04:39.825Z,6.31
2022-11-21T21:07:07.503Z,7.10
2022-11-21T21:09:34.195Z,6.00
2022-11-21T21:12:01.015Z,5.06
2022-11-21T21:14:29.316Z,4.42
2022-11-21T21:16:59.467Z,3.93
2022-11-21T21:19:26.025Z,3.57
2022-11-21T21:21:52.489Z,4.32
2022-11-21T21:24:19.051Z,6.51
2022-11-21T21:26:49.692Z,7.12
2022-11-21T21:29:19.412Z,5.98
2022-11-21T21:31:51.085Z,5.05
2022-11-21T21:34:22.422Z,4.42
2022-11-21T21:36:50.591Z,4.45
2022-11-21T21:39:20.090Z,6.44
2022-11-21T21:41:47.527Z,7.34
2022-11-21T21:44:15.647Z,6.26
2022-11-21T21:46:45.284Z,5.27
2022-11-21T21:49:12.231Z,4.59
2022-11-21T21:51:39.435Z,4.09
2022-11-21T21:54:06.581Z,3.72
2022-11-21T21:56:36.032Z,4.11
2022-11-21T21:59:02.755Z,6.25
2022-11-21T22:01:32.570Z,7.27
2022-11-21T22:04:04.193Z,6.19
2022-11-21T22:06:34.673Z,5.19
2022-11-21T22:09:02.195Z,4.46
2022-11-21T22:11:31.833Z,4.00
2022-11-21T22:14:06.611Z,5.25
2022-11-21T22:16:33.619Z,6.46
2022-11-21T22:19:00.404Z,5.42
2022-11-21T22:21:31.851Z,4.49
2022-11-21T22:26:52.801Z,3.59
2022-11-21T22:29:19.241Z,5.27
2022-11-21T22:31:46.850Z,6.53
2022-11-21T22:34:14.502Z,5.56
2022-11-21T22:36:43.117Z,4.53
2022-11-21T22:39:09.732Z,3.85
2022-11-21T22:41:39.955Z,3.76
2022-11-21T22:44:06.563Z,5.65
2022-11-21T22:46:37.280Z,6.87
2022-11-21T22:49:04.576Z,5.87
2022-11-21T22:51:32.327Z,4.84
2022-11-21T22:54:01.101Z,4.11
2022-11-21T22:56:27.722Z,3.60
2022-11-21T22:58:55.701Z,3.84
2022-11-21T23:01:25.580Z,5.90
2022-11-21T23:03:54.855Z,7.01
2022-11-21T23:07:37.667Z,5.86
2022-11-21T23:10:13.195Z,4.30
2022-11-21T23:12:44.362Z,3.70
2022-11-21T23:15:11.172Z,3.96
2022-11-21T23:17:37.478Z,6.03
2022-11-21T23:20:04.307Z,6.93
2022-11-21T23:22:30.600Z,5.81
2022-11-21T23:24:56.971Z,4.76
2022-11-21T23:27:23.235Z,4.11
2022-11-21T23:29:49.617Z,4.52
2022-11-21T23:32:16.479Z,6.48
2022-11-21T23:34:42.829Z,6.78
2022-11-21T23:37:09.380Z,5.63
2022-11-21T23:39:35.903Z,4.67
2022-11-21T23:42:02.504Z,4.03
2022-11-21T23:44:28.970Z,3.58
2022-11-21T23:46:55.430Z,4.24
2022-11-21T23:49:21.782Z,6.33
2022-11-21T23:51:48.444Z,6.73
2022-11-21T23:54:14.858Z,5.56
2022-11-21T23:56:44.084Z,4.59
2022-11-21T23:59:10.537Z,3.94
